Terminal Aerodrome Forecast
Issued by NWS

Home | Current Version | Previous Version | Text Only | Print | Product List | Glossary On
Versions: 1 2 3 4 5 6 7 8 9 10 11 12 13 14 15 16 17 18 19 20 21 22 23 24 25 26
000
FTUS45 KBOU 311135
TAFBJC
TAF
KBJC 311135Z 3112/0112 VRB04KT P6SM SCT012 OVC035
     FM311500 12006KT P6SM SCT012 BKN035
     FM311800 08008KT P6SM SCT020 BKN040
     FM312200 03010KT P6SM VCTS SCT030CB BKN060
      TEMPO 3123/0103 5SM SHRA OVC030
     FM010300 VRB05KT P6SM SCT020 BKN035 PROB30 0103/0106 -SHRA
     FM010800 21005KT P6SM VCFG SCT020 BKN035=

USA.gov is the U.S. government's official web portal to all federal, state and local government web resources and services.